KCDH/CDH METAR and TAF weather

Enter ICAO airport designator
Station Type Date Time Source
KCDH METAR 2019/10/21 05:15 UTC NOAA

KCDH 210515Z AUTO 17011KT 9SM CLR 23/21 A2968 RMK AO2


Station Type Date Time Source
KCDH Decoded METAR 2019/10/21 05:15 UTC NOAA

Camden / Harrell Field, AR, United States (KCDH) 33-37N 092-46W
Oct 21, 2019 - 01:15 AM EDT / 2019.10.21 0515 UTC
Wind: from the S (170 degrees) at 13 MPH (11 KT):0
Visibility: 9 mile(s):0
Sky conditions: clear
Temperature: 73 F (23 C)
Dew Point: 69 F (21 C)
Relative Humidity: 88%
Pressure (altimeter): 29.68 in. Hg (1005 hPa)
ob: KCDH 210515Z AUTO 17011KT 9SM CLR 23/21 A2968 RMK AO2
cycle: 5

Station Type Date Time Source
KCDH TAF UTC NOAA

Error!

Example: see airport list